createdAt,value
2018-08-18T00:00:13.662Z,8.80
2018-08-18T00:02:42.166Z,9.70
2018-08-18T00:05:11.547Z,9.40
2018-08-18T00:07:40.047Z,9.13
2018-08-18T00:10:09.907Z,9.77
2018-08-18T00:12:38.635Z,8.80
2018-08-18T00:15:08.178Z,10.40
2018-08-18T00:17:37.614Z,10.67
2018-08-18T00:20:11.468Z,9.80
2018-08-18T00:22:39.890Z,9.80
2018-08-18T00:25:08.334Z,11.43
2018-08-18T00:27:36.723Z,10.90
2018-08-18T00:30:39.108Z,12.17
2018-08-18T00:33:07.522Z,12.87
2018-08-18T00:35:35.965Z,9.57
2018-08-18T00:38:04.339Z,9.67
2018-08-18T00:40:32.691Z,10.80
2018-08-18T00:43:01.151Z,9.57
2018-08-18T00:45:29.547Z,15.00
2018-08-18T00:47:57.983Z,15.20
2018-08-18T00:50:37.649Z,14.80
2018-08-18T00:53:07.753Z,15.30
2018-08-18T00:55:36.591Z,13.23
2018-08-18T00:58:05.788Z,11.07
2018-08-18T01:00:34.551Z,11.67
2018-08-18T01:03:03.030Z,11.60
2018-08-18T01:05:31.439Z,11.00
2018-08-18T01:07:59.945Z,11.43
2018-08-18T01:10:28.443Z,15.87
2018-08-18T01:12:56.890Z,16.50
2018-08-18T01:15:27.253Z,15.97
2018-08-18T01:17:56.458Z,16.33
2018-08-18T01:20:24.975Z,13.13
2018-08-18T01:23:00.922Z,13.27
2018-08-18T01:25:30.243Z,13.53
2018-08-18T01:27:59.583Z,13.80
2018-08-18T01:30:27.983Z,11.80
2018-08-18T01:32:56.834Z,13.43
2018-08-18T01:35:25.593Z,14.37
2018-08-18T01:37:53.950Z,13.50
2018-08-18T01:40:22.343Z,13.90
2018-08-18T01:42:50.711Z,14.80
2018-08-18T01:45:19.175Z,13.57
2018-08-18T01:47:47.571Z,17.97
2018-08-18T01:50:19.330Z,17.00
2018-08-18T01:52:47.708Z,17.23
2018-08-18T01:55:16.202Z,16.13
2018-08-18T01:57:44.874Z,16.60
2018-08-18T02:00:23.035Z,16.00
2018-08-18T02:02:51.420Z,14.77
2018-08-18T02:05:19.991Z,14.27
2018-08-18T02:07:48.363Z,16.47
2018-08-18T02:10:16.754Z,15.03
2018-08-18T02:12:56.463Z,15.10
2018-08-18T02:15:24.847Z,14.50
2018-08-18T02:17:53.238Z,15.53
2018-08-18T02:20:21.703Z,14.40
2018-08-18T02:22:50.074Z,13.70
2018-08-18T02:25:21.618Z,15.13
2018-08-18T02:27:49.984Z,13.57
2018-08-18T02:30:19.512Z,14.87
2018-08-18T02:32:47.930Z,13.20
2018-08-18T02:35:16.350Z,13.97
2018-08-18T02:37:44.715Z,13.83
2018-08-18T02:40:14.989Z,16.37
2018-08-18T02:42:43.383Z,17.10
2018-08-18T02:45:12.606Z,17.57
2018-08-18T02:47:41.059Z,14.97
2018-08-18T02:50:10.790Z,14.70
2018-08-18T02:52:39.190Z,15.47
2018-08-18T02:55:09.590Z,14.80
2018-08-18T02:57:44.614Z,13.50
2018-08-18T03:00:21.701Z,15.27
2018-08-18T03:02:50.176Z,18.53
2018-08-18T03:05:18.540Z,15.50
2018-08-18T03:07:50.985Z,15.80
2018-08-18T03:10:22.698Z,15.23
2018-08-18T03:12:51.686Z,14.10
2018-08-18T03:16:07.694Z,13.60
2018-08-18T03:18:46.059Z,13.53
2018-08-18T03:21:14.665Z,16.00
2018-08-18T03:23:54.523Z,17.20
2018-08-18T03:26:36.634Z,15.27
2018-08-18T03:29:05.076Z,15.20
2018-08-18T03:31:33.382Z,13.47
2018-08-18T03:34:01.775Z,15.37
2018-08-18T03:36:31.467Z,14.70
2018-08-18T03:39:00.118Z,14.67
2018-08-18T03:41:29.228Z,18.10
2018-08-18T03:43:58.055Z,22.20
2018-08-18T03:46:26.466Z,22.50
2018-08-18T03:48:55.159Z,21.20
2018-08-18T03:51:55.979Z,18.93
2018-08-18T03:54:24.378Z,19.70
2018-08-18T03:56:52.770Z,19.80
2018-08-18T03:59:21.190Z,20.80
2018-08-18T04:01:53.842Z,19.10
2018-08-18T04:04:23.296Z,19.10
2018-08-18T04:06:52.911Z,18.40
2018-08-18T04:09:30.098Z,20.13
2018-08-18T04:11:59.234Z,19.30
2018-08-18T04:14:30.690Z,19.57
2018-08-18T04:16:59.123Z,20.73
2018-08-18T04:19:27.591Z,19.50
2018-08-18T04:21:56.447Z,20.33
2018-08-18T04:24:33.755Z,19.40
2018-08-18T04:27:02.780Z,21.17
2018-08-18T04:29:31.183Z,18.83
2018-08-18T04:32:00.100Z,19.77
2018-08-18T04:34:28.495Z,19.30
2018-08-18T04:36:56.882Z,18.60
2018-08-18T04:39:25.273Z,20.17
2018-08-18T04:41:53.647Z,18.90
2018-08-18T04:44:22.090Z,19.20
2018-08-18T04:46:50.411Z,17.83
2018-08-18T04:49:18.795Z,16.87
2018-08-18T04:51:47.236Z,18.63
2018-08-18T04:54:15.635Z,17.60
2018-08-18T04:56:44.040Z,18.60
2018-08-18T04:59:12.487Z,17.27
2018-08-18T05:01:41.407Z,17.87
2018-08-18T05:04:10.914Z,18.70
2018-08-18T05:06:40.745Z,17.80
2018-08-18T05:09:10.295Z,19.07
2018-08-18T05:11:38.854Z,17.20
2018-08-18T05:14:07.406Z,18.63
2018-08-18T05:16:35.911Z,18.50
2018-08-18T05:19:04.332Z,18.50
2018-08-18T05:21:32.724Z,18.07
2018-08-18T05:24:32.351Z,18.77
2018-08-18T05:27:05.020Z,22.90
2018-08-18T05:29:33.988Z,23.87
2018-08-18T05:32:02.379Z,20.90
2018-08-18T05:34:30.771Z,23.77
2018-08-18T05:36:59.216Z,23.07
2018-08-18T05:39:27.582Z,22.87
2018-08-18T05:41:55.972Z,23.90
2018-08-18T05:44:24.331Z,21.97
2018-08-18T05:46:52.731Z,22.20
2018-08-18T05:49:21.136Z,21.37
2018-08-18T05:51:50.564Z,21.03
2018-08-18T05:54:24.255Z,21.77
2018-08-18T05:56:52.630Z,21.83
2018-08-18T05:59:21.003Z,20.50
2018-08-18T06:01:49.401Z,21.47
2018-08-18T06:04:19.008Z,21.37
2018-08-18T06:06:48.048Z,22.73
2018-08-18T06:09:17.659Z,23.10
2018-08-18T06:11:46.120Z,21.43
2018-08-18T06:14:14.979Z,22.70
2018-08-18T06:16:43.813Z,21.17
2018-08-18T06:19:12.212Z,20.10
2018-08-18T06:21:40.684Z,18.70
2018-08-18T06:24:09.078Z,19.10
2018-08-18T06:26:37.452Z,18.77
2018-08-18T06:29:05.995Z,17.77
2018-08-18T06:31:38.999Z,18.43
2018-08-18T06:34:07.374Z,17.40
2018-08-18T06:36:35.734Z,17.87
2018-08-18T06:39:05.279Z,17.97
2018-08-18T06:41:33.695Z,17.70
2018-08-18T06:44:02.007Z,17.13
2018-08-18T06:46:30.461Z,16.77
2018-08-18T06:48:58.828Z,17.27
2018-08-18T06:51:27.231Z,16.47
2018-08-18T06:53:55.595Z,15.77
2018-08-18T06:56:24.007Z,15.50
2018-08-18T06:58:52.432Z,16.93
2018-08-18T07:01:20.806Z,15.47
2018-08-18T07:03:49.200Z,15.40
2018-08-18T07:06:18.060Z,14.27
2018-08-18T07:08:52.557Z,14.50
2018-08-18T07:11:20.936Z,13.23
2018-08-18T07:13:49.805Z,11.93
2018-08-18T07:16:18.199Z,13.33
2018-08-18T07:18:46.554Z,13.87
2018-08-18T07:21:14.910Z,13.50
2018-08-18T07:23:46.251Z,12.53
2018-08-18T07:26:14.616Z,13.57
2018-08-18T07:28:43.066Z,12.93
2018-08-18T07:31:12.388Z,13.17
2018-08-18T07:33:40.818Z,13.00
2018-08-18T07:36:09.188Z,12.03
2018-08-18T07:38:37.572Z,12.97
2018-08-18T07:41:05.971Z,13.23
2018-08-18T07:43:35.670Z,11.37
2018-08-18T07:46:05.715Z,9.90
2018-08-18T07:48:34.140Z,9.70
2018-08-18T07:51:02.647Z,9.97
2018-08-18T07:53:31.133Z,9.30
2018-08-18T07:55:59.463Z,8.50
2018-08-18T07:58:27.867Z,10.17
2018-08-18T08:00:56.906Z,10.27
2018-08-18T08:03:25.353Z,10.73
2018-08-18T08:05:53.728Z,8.60
2018-08-18T08:08:22.174Z,9.20
2018-08-18T08:10:50.640Z,7.20
2018-08-18T08:13:19.023Z,5.33
2018-08-18T08:15:47.391Z,4.80
2018-08-18T08:18:16.233Z,5.57
2018-08-18T08:20:44.535Z,5.50
2018-08-18T08:23:13.015Z,6.33
2018-08-18T08:25:41.398Z,5.00
2018-08-18T08:28:09.768Z,5.50
2018-08-18T08:30:38.166Z,5.27
2018-08-18T08:33:06.634Z,4.30
2018-08-18T08:35:37.423Z,4.83
2018-08-18T08:38:05.878Z,4.73
2018-08-18T08:40:34.419Z,6.00
2018-08-18T08:43:03.072Z,5.03
2018-08-18T08:45:31.602Z,5.50
2018-08-18T08:48:00.047Z,5.80
2018-08-18T08:50:28.419Z,5.00
2018-08-18T08:52:57.620Z,5.43
2018-08-18T08:55:27.315Z,6.30
2018-08-18T08:57:55.719Z,5.83
2018-08-18T09:00:24.123Z,5.13
2018-08-18T09:02:52.468Z,4.40
2018-08-18T09:05:21.143Z,4.30
2018-08-18T09:07:49.537Z,4.30
2018-08-18T09:10:18.322Z,4.30
2018-08-18T09:12:46.651Z,5.70
2018-08-18T09:15:16.294Z,7.00
2018-08-18T09:17:44.679Z,7.10
2018-08-18T09:20:17.606Z,5.90
2018-08-18T09:22:54.539Z,5.00
2018-08-18T09:25:22.910Z,4.93
2018-08-18T09:28:02.123Z,5.60
2018-08-18T09:30:31.856Z,5.30
2018-08-18T09:33:02.777Z,4.77
2018-08-18T09:35:40.643Z,5.03
2018-08-18T09:38:09.006Z,5.70
2018-08-18T09:40:37.359Z,7.80
2018-08-18T09:43:09.936Z,5.57
2018-08-18T09:45:38.315Z,5.60
2018-08-18T09:48:06.964Z,5.70
2018-08-18T09:50:35.327Z,5.70
2018-08-18T09:53:03.723Z,5.63
2018-08-18T09:55:32.086Z,5.40
2018-08-18T09:58:00.458Z,6.50
2018-08-18T10:00:45.376Z,6.57
2018-08-18T10:03:13.718Z,6.33
2018-08-18T10:05:42.114Z,5.53
2018-08-18T10:08:10.517Z,6.40
2018-08-18T10:10:38.905Z,6.03
2018-08-18T10:13:07.271Z,6.00
2018-08-18T10:15:35.945Z,6.07
2018-08-18T10:18:04.327Z,6.00
2018-08-18T10:20:37.807Z,5.23
2018-08-18T10:23:06.191Z,5.30
2018-08-18T10:25:34.552Z,5.50
2018-08-18T10:28:02.891Z,5.50
2018-08-18T10:30:31.243Z,5.33
2018-08-18T10:33:06.087Z,6.00
2018-08-18T10:35:34.459Z,5.70
2018-08-18T10:38:05.151Z,6.60
2018-08-18T10:40:33.547Z,6.30
2018-08-18T10:43:01.902Z,5.97
2018-08-18T10:45:30.274Z,5.40
2018-08-18T10:47:58.599Z,6.00
2018-08-18T10:57:52.428Z,5.73
2018-08-18T11:00:22.827Z,6.30
2018-08-18T11:02:54.287Z,6.10
2018-08-18T11:05:23.531Z,5.13
2018-08-18T11:07:58.210Z,4.83
2018-08-18T11:10:28.431Z,4.80
2018-08-18T11:12:56.854Z,4.67
2018-08-18T11:15:25.360Z,4.43
2018-08-18T11:17:54.051Z,4.97
2018-08-18T11:20:23.632Z,8.90
2018-08-18T11:23:14.543Z,5.00
2018-08-18T11:25:45.150Z,5.03
2018-08-18T11:28:14.210Z,5.20
2018-08-18T11:30:42.682Z,4.87
2018-08-18T11:33:11.768Z,4.80
2018-08-18T11:35:40.114Z,3.60
2018-08-18T11:38:15.494Z,4.80
2018-08-18T11:40:44.087Z,6.13
2018-08-18T11:43:14.054Z,5.90
2018-08-18T11:45:43.355Z,5.03
2018-08-18T11:48:13.832Z,5.20
2018-08-18T11:50:42.628Z,4.87
2018-08-18T11:53:11.068Z,3.43
2018-08-18T11:55:39.634Z,3.77
2018-08-18T11:58:13.383Z,4.40
2018-08-18T12:00:46.236Z,3.67
2018-08-18T12:03:15.910Z,3.53
2018-08-18T12:05:47.301Z,4.23
2018-08-18T12:08:17.285Z,4.47
2018-08-18T12:10:46.145Z,4.20
2018-08-18T12:13:14.531Z,4.23
2018-08-18T12:16:15.519Z,4.30
2018-08-18T12:18:45.071Z,4.43
2018-08-18T12:21:13.867Z,5.43
2018-08-18T12:23:43.674Z,5.17
2018-08-18T12:26:16.376Z,4.10
2018-08-18T12:28:52.779Z,3.70
2018-08-18T12:31:23.493Z,4.10
2018-08-18T12:33:52.381Z,4.77
2018-08-18T12:36:20.946Z,4.57
2018-08-18T12:38:51.259Z,3.73
2018-08-18T12:41:19.632Z,3.40
2018-08-18T12:43:50.931Z,3.90
2018-08-18T12:46:20.547Z,3.30
2018-08-18T12:48:50.410Z,4.90
2018-08-18T12:51:19.615Z,3.73
2018-08-18T12:53:49.299Z,3.13
2018-08-18T12:56:19.690Z,2.73
2018-08-18T12:58:48.095Z,2.80
2018-08-18T13:01:36.259Z,2.67
2018-08-18T13:04:06.607Z,3.17
2018-08-18T13:06:39.175Z,2.77
2018-08-18T13:09:09.491Z,4.60
2018-08-18T13:11:37.951Z,3.13
2018-08-18T13:14:06.615Z,4.17
2018-08-18T13:16:36.127Z,3.50
2018-08-18T13:19:04.851Z,4.50
2018-08-18T13:21:33.188Z,4.10
2018-08-18T13:24:02.539Z,5.07
2018-08-18T13:26:31.256Z,4.83
2018-08-18T13:28:59.562Z,5.60
2018-08-18T13:31:32.540Z,4.47
2018-08-18T13:34:00.936Z,4.00
2018-08-18T13:36:29.692Z,4.50
2018-08-18T13:38:58.048Z,4.60
2018-08-18T13:41:26.402Z,5.50
2018-08-18T13:43:54.750Z,4.67
2018-08-18T13:46:34.560Z,4.53
2018-08-18T13:49:03.251Z,5.60
2018-08-18T13:51:32.431Z,5.93
2018-08-18T13:54:02.743Z,5.27
2018-08-18T13:56:31.608Z,5.20
2018-08-18T13:59:00.036Z,5.73
2018-08-18T14:01:40.092Z,4.90
2018-08-18T14:04:19.684Z,4.73
2018-08-18T14:06:54.349Z,5.23
2018-08-18T14:09:22.743Z,6.70
2018-08-18T14:11:54.723Z,5.27
2018-08-18T14:14:23.083Z,5.63
2018-08-18T14:16:51.477Z,5.10
2018-08-18T14:19:21.302Z,4.97
2018-08-18T14:21:53.878Z,5.40
2018-08-18T14:24:26.623Z,4.50
2018-08-18T14:27:01.308Z,4.93
2018-08-18T14:29:31.284Z,4.87
2018-08-18T14:32:00.259Z,5.03
2018-08-18T14:34:28.647Z,5.47
2018-08-18T14:37:01.160Z,6.23
2018-08-18T14:39:37.114Z,6.10
2018-08-18T14:42:05.819Z,5.70
2018-08-18T14:44:34.263Z,5.77
2018-08-18T14:47:02.739Z,5.40
2018-08-18T14:49:31.397Z,5.50
2018-08-18T14:51:59.795Z,6.40
2018-08-18T14:54:31.185Z,4.97
2018-08-18T14:57:01.031Z,5.53
2018-08-18T14:59:37.513Z,4.40
2018-08-18T15:02:07.379Z,4.30
2018-08-18T15:04:36.266Z,4.23
2018-08-18T15:07:04.699Z,4.73
2018-08-18T15:09:42.503Z,4.57
2018-08-18T15:12:10.880Z,5.10
2018-08-18T15:14:39.236Z,4.70
2018-08-18T15:17:07.635Z,5.20
2018-08-18T15:19:35.975Z,4.30
2018-08-18T15:22:06.911Z,4.50
2018-08-18T15:24:35.255Z,5.03
2018-08-18T15:27:03.650Z,4.00
2018-08-18T15:29:32.040Z,3.70
2018-08-18T15:32:00.449Z,4.80
2018-08-18T15:34:28.894Z,3.70
2018-08-18T15:36:57.254Z,4.30
2018-08-18T15:39:26.944Z,3.90
2018-08-18T15:41:57.408Z,4.60
2018-08-18T15:44:25.772Z,4.90
2018-08-18T15:46:54.168Z,4.20
2018-08-18T15:49:22.554Z,4.37
2018-08-18T15:51:50.962Z,4.70
2018-08-18T15:54:19.473Z,3.73
2018-08-18T15:56:47.822Z,3.27
2018-08-18T15:59:16.179Z,3.47
2018-08-18T16:01:44.543Z,3.53
2018-08-18T16:04:13.920Z,4.10
2018-08-18T16:06:42.294Z,3.60
2018-08-18T16:09:10.651Z,4.00
2018-08-18T16:11:39.051Z,3.37
2018-08-18T16:14:07.408Z,3.17
2018-08-18T16:16:51.579Z,3.57
2018-08-18T16:19:19.935Z,4.17
2018-08-18T16:21:48.327Z,3.10
2018-08-18T16:24:56.515Z,4.93
2018-08-18T16:27:24.937Z,3.90
2018-08-18T16:29:53.267Z,3.70
2018-08-18T16:32:26.372Z,4.33
2018-08-18T16:35:02.753Z,4.37
2018-08-18T16:37:31.987Z,4.00
2018-08-18T16:40:00.367Z,4.27
2018-08-18T16:42:29.179Z,4.30
2018-08-18T16:44:57.596Z,3.20
2018-08-18T16:47:25.959Z,4.60
2018-08-18T16:49:54.328Z,6.03
2018-08-18T16:52:22.685Z,4.37
2018-08-18T16:54:51.060Z,3.70
2018-08-18T16:57:19.441Z,2.87
2018-08-18T16:59:47.831Z,3.60
2018-08-18T17:02:31.148Z,3.27
2018-08-18T17:04:59.511Z,3.20
2018-08-18T17:07:28.175Z,3.00
2018-08-18T17:09:56.595Z,3.30
2018-08-18T17:12:28.951Z,3.80
2018-08-18T17:14:57.336Z,3.57
2018-08-18T17:17:26.075Z,3.00
2018-08-18T17:19:54.455Z,3.27
2018-08-18T17:22:22.827Z,2.67
2018-08-18T17:24:51.234Z,2.63
2018-08-18T17:27:19.589Z,2.83
2018-08-18T17:29:49.766Z,2.10
2018-08-18T17:32:18.123Z,1.93
2018-08-18T17:34:46.487Z,2.30
2018-08-18T17:37:14.835Z,1.97
2018-08-18T17:39:43.230Z,2.30
2018-08-18T17:42:11.603Z,2.47
2018-08-18T17:44:39.963Z,2.00
2018-08-18T17:47:09.595Z,1.93
2018-08-18T17:49:57.734Z,1.50
2018-08-18T17:52:27.310Z,1.73
2018-08-18T17:55:10.783Z,2.10
2018-08-18T17:57:39.575Z,2.40
2018-08-18T18:00:29.598Z,1.60
2018-08-18T18:03:00.569Z,2.13
2018-08-18T18:05:31.826Z,2.00
2018-08-18T18:08:02.174Z,1.83
2018-08-18T18:10:31.868Z,2.00
2018-08-18T18:13:00.427Z,2.13
2018-08-18T18:15:32.671Z,2.63
2018-08-18T18:18:01.102Z,2.20
2018-08-18T18:20:31.047Z,2.17
2018-08-18T18:22:59.459Z,1.60
2018-08-18T18:25:27.895Z,2.70
2018-08-18T18:27:56.338Z,1.90
2018-08-18T18:30:27.574Z,1.50
2018-08-18T18:32:56.463Z,2.27
2018-08-18T18:35:25.295Z,1.63
2018-08-18T18:37:56.362Z,1.80
2018-08-18T18:40:24.744Z,1.93
2018-08-18T18:42:53.099Z,2.00
2018-08-18T18:45:23.488Z,7.10
2018-08-18T18:47:51.871Z,2.73
2018-08-18T18:50:20.436Z,2.30
2018-08-18T18:52:48.871Z,3.17
2018-08-18T18:55:17.807Z,3.10
2018-08-18T18:58:01.715Z,2.00
2018-08-18T19:00:31.575Z,2.30
2018-08-18T19:02:59.960Z,2.77
2018-08-18T19:05:29.707Z,2.17
2018-08-18T19:08:11.207Z,2.23
2018-08-18T19:10:39.835Z,1.87
2018-08-18T19:13:09.051Z,2.30
2018-08-18T19:15:37.410Z,1.90
2018-08-18T19:18:06.468Z,1.70
2018-08-18T19:20:34.875Z,2.30
2018-08-18T19:23:09.779Z,2.80
2018-08-18T19:25:39.431Z,3.07
2018-08-18T19:28:11.222Z,2.10
2018-08-18T19:30:39.624Z,2.33
2018-08-18T19:33:08.303Z,2.60
2018-08-18T19:35:40.418Z,2.77
2018-08-18T19:38:08.964Z,2.10
2018-08-18T19:40:38.626Z,2.33
2018-08-18T19:43:13.066Z,2.20
2018-08-18T19:45:41.544Z,2.27
2018-08-18T19:48:10.919Z,2.40
2018-08-18T19:50:48.471Z,2.33
2018-08-18T19:53:17.365Z,2.27
2018-08-18T19:55:45.742Z,2.40
2018-08-18T19:58:14.186Z,1.80
2018-08-18T20:00:42.541Z,2.00
2018-08-18T20:03:12.287Z,2.30
2018-08-18T20:05:40.639Z,2.50
2018-08-18T20:08:09.204Z,2.13
2018-08-18T20:10:44.041Z,2.50
2018-08-18T20:13:13.371Z,2.20
2018-08-18T20:15:44.283Z,2.40
2018-08-18T20:18:12.717Z,2.03
2018-08-18T20:20:41.103Z,2.03
2018-08-18T20:23:09.559Z,2.10
2018-08-18T20:25:37.931Z,2.50
2018-08-18T20:28:06.380Z,2.20
2018-08-18T20:30:34.763Z,2.33
2018-08-18T20:33:03.324Z,2.70
2018-08-18T20:35:31.687Z,2.43
2018-08-18T20:38:00.172Z,2.77
2018-08-18T20:40:28.676Z,2.50
2018-08-18T20:42:57.515Z,2.43
2018-08-18T20:45:31.600Z,2.60
2018-08-18T20:48:00.247Z,2.50
2018-08-18T20:50:29.176Z,2.50
2018-08-18T20:53:02.996Z,2.57
2018-08-18T20:55:31.575Z,2.00
2018-08-18T20:57:59.939Z,2.90
2018-08-18T21:00:28.297Z,3.07
2018-08-18T21:02:56.703Z,2.30
2018-08-18T21:05:25.045Z,2.90
2018-08-18T21:07:53.411Z,2.63
2018-08-18T21:10:21.746Z,3.17
2018-08-18T21:12:50.193Z,3.40
2018-08-18T21:15:18.579Z,3.07
2018-08-18T21:17:46.966Z,3.03
2018-08-18T21:20:17.129Z,3.00
2018-08-18T21:22:45.487Z,2.83
2018-08-18T21:25:14.607Z,3.33
2018-08-18T21:27:43.131Z,3.57
2018-08-18T21:30:14.292Z,3.83
2018-08-18T21:32:42.689Z,3.70
2018-08-18T21:35:11.055Z,3.57
2018-08-18T21:37:39.415Z,3.43
2018-08-18T21:40:08.800Z,3.87
2018-08-18T21:42:37.174Z,4.10
2018-08-18T21:45:08.855Z,3.50
2018-08-18T21:47:37.226Z,3.27
2018-08-18T21:50:05.999Z,4.00
2018-08-18T21:52:34.346Z,3.90
2018-08-18T21:55:02.712Z,3.90
2018-08-18T21:57:36.583Z,4.20
2018-08-18T22:00:05.473Z,4.50
2018-08-18T22:02:40.879Z,4.30
2018-08-18T22:05:11.871Z,4.40
2018-08-18T22:07:45.633Z,3.57
2018-08-18T22:10:14.003Z,4.30
2018-08-18T22:12:42.377Z,4.27
2018-08-18T22:15:17.685Z,4.37
2018-08-18T22:17:46.952Z,4.57
2018-08-18T22:20:16.101Z,4.80
2018-08-18T22:22:44.488Z,4.10
2018-08-18T22:25:13.111Z,4.80
2018-08-18T22:27:41.478Z,4.70
2018-08-18T22:30:12.064Z,5.50
2018-08-18T22:32:41.795Z,4.83
2018-08-18T22:35:11.239Z,4.63
2018-08-18T22:37:39.995Z,5.23
2018-08-18T22:40:09.366Z,4.60
2018-08-18T22:42:37.859Z,5.20
2018-08-18T22:45:17.683Z,4.73
2018-08-18T22:47:46.301Z,4.77
2018-08-18T22:50:15.484Z,4.53
2018-08-18T22:52:47.314Z,5.50
2018-08-18T22:55:15.875Z,4.90
2018-08-18T22:57:50.980Z,5.40
2018-08-18T23:00:19.375Z,5.37
2018-08-18T23:02:47.780Z,5.20
2018-08-18T23:05:17.755Z,4.63
2018-08-18T23:07:47.475Z,5.40
2018-08-18T23:10:15.886Z,4.53
2018-08-18T23:12:44.258Z,4.53
2018-08-18T23:15:12.615Z,5.20
2018-08-18T23:17:40.978Z,5.07
2018-08-18T23:20:09.379Z,5.13
2018-08-18T23:22:54.438Z,4.83
2018-08-18T23:25:23.979Z,5.33
2018-08-18T23:27:52.675Z,6.07
2018-08-18T23:30:37.023Z,6.10
2018-08-18T23:33:07.065Z,5.60
2018-08-18T23:35:35.634Z,5.40
2018-08-18T23:38:04.246Z,5.27
2018-08-18T23:40:32.663Z,5.60
2018-08-18T23:43:01.033Z,6.13
2018-08-18T23:45:37.621Z,6.33
2018-08-18T23:48:08.492Z,5.33
2018-08-18T23:50:37.835Z,5.70
2018-08-18T23:53:10.504Z,5.53
2018-08-18T23:55:48.542Z,4.97
2018-08-18T23:58:17.083Z,6.00
